sensor_id;sensor_type;location;lat;lon;timestamp;temperature;humidity
28075;DHT22;15385;51.088;6.572;2023-05-10T00:00:02;15.80;99.90
28075;DHT22;15385;51.088;6.572;2023-05-10T00:02:35;15.70;99.90
28075;DHT22;15385;51.088;6.572;2023-05-10T00:05:06;15.70;99.90
28075;DHT22;15385;51.088;6.572;2023-05-10T00:07:37;15.70;99.90
28075;DHT22;15385;51.088;6.572;2023-05-10T00:10:07;15.80;99.90
28075;DHT22;15385;51.088;6.572;2023-05-10T00:12:38;15.80;99.90
28075;DHT22;15385;51.088;6.572;2023-05-10T00:15:09;15.70;99.90
28075;DHT22;15385;51.088;6.572;2023-05-10T00:17:40;15.70;99.90
28075;DHT22;15385;51.088;6.572;2023-05-10T00:20:11;15.60;99.90
28075;DHT22;15385;51.088;6.572;2023-05-10T00:22:42;15.70;99.90
28075;DHT22;15385;51.088;6.572;2023-05-10T00:25:12;15.80;99.90
28075;DHT22;15385;51.088;6.572;2023-05-10T00:27:43;15.80;99.90
28075;DHT22;15385;51.088;6.572;2023-05-10T00:30:14;15.90;99.90
28075;DHT22;15385;51.088;6.572;2023-05-10T00:32:44;15.90;99.90
28075;DHT22;15385;51.088;6.572;2023-05-10T00:35:15;15.90;99.90
28075;DHT22;15385;51.088;6.572;2023-05-10T00:37:46;15.90;99.90
28075;DHT22;15385;51.088;6.572;2023-05-10T00:40:17;15.90;99.90
28075;DHT22;15385;51.088;6.572;2023-05-10T00:42:47;16.00;99.90
28075;DHT22;15385;51.088;6.572;2023-05-10T00:45:18;16.00;99.90
28075;DHT22;15385;51.088;6.572;2023-05-10T00:47:49;16.00;99.90
28075;DHT22;15385;51.088;6.572;2023-05-10T00:50:21;16.00;99.90
28075;DHT22;15385;51.088;6.572;2023-05-10T00:52:52;16.00;99.90
28075;DHT22;15385;51.088;6.572;2023-05-10T00:55:23;16.00;99.90
28075;DHT22;15385;51.088;6.572;2023-05-10T00:57:54;16.00;99.90
28075;DHT22;15385;51.088;6.572;2023-05-10T01:00:25;16.00;99.90
28075;DHT22;15385;51.088;6.572;2023-05-10T01:02:55;16.00;99.90
28075;DHT22;15385;51.088;6.572;2023-05-10T01:05:26;16.00;99.90
28075;DHT22;15385;51.088;6.572;2023-05-10T01:07:57;16.10;99.90
28075;DHT22;15385;51.088;6.572;2023-05-10T01:10:28;16.10;99.90
28075;DHT22;15385;51.088;6.572;2023-05-10T01:12:59;16.10;99.90
28075;DHT22;15385;51.088;6.572;2023-05-10T01:15:31;16.10;99.90
28075;DHT22;15385;51.088;6.572;2023-05-10T01:18:02;16.10;99.90
28075;DHT22;15385;51.088;6.572;2023-05-10T01:20:41;16.10;99.90
28075;DHT22;15385;51.088;6.572;2023-05-10T01:24:22;16.20;99.90
28075;DHT22;15385;51.088;6.572;2023-05-10T01:32:17;16.10;99.90
28075;DHT22;15385;51.088;6.572;2023-05-10T01:38:10;16.20;99.90
28075;DHT22;15385;51.088;6.572;2023-05-10T01:40:59;16.20;99.90
28075;DHT22;15385;51.088;6.572;2023-05-10T01:43:57;16.20;99.90
28075;DHT22;15385;51.088;6.572;2023-05-10T01:46:36;16.20;99.90
28075;DHT22;15385;51.088;6.572;2023-05-10T01:49:47;16.20;99.90
28075;DHT22;15385;51.088;6.572;2023-05-10T01:52:25;16.20;99.90
28075;DHT22;15385;51.088;6.572;2023-05-10T01:55:06;16.20;99.90
28075;DHT22;15385;51.088;6.572;2023-05-10T01:57:39;16.20;99.90
28075;DHT22;15385;51.088;6.572;2023-05-10T02:00:12;16.00;99.90
28075;DHT22;15385;51.088;6.572;2023-05-10T02:02:48;16.00;99.90
28075;DHT22;15385;51.088;6.572;2023-05-10T02:05:20;15.90;99.90
28075;DHT22;15385;51.088;6.572;2023-05-10T02:07:52;16.00;99.90
28075;DHT22;15385;51.088;6.572;2023-05-10T02:10:23;15.90;99.90
28075;DHT22;15385;51.088;6.572;2023-05-10T02:12:55;15.90;99.90
28075;DHT22;15385;51.088;6.572;2023-05-10T02:15:26;15.80;99.90
28075;DHT22;15385;51.088;6.572;2023-05-10T02:17:58;15.80;99.90
28075;DHT22;15385;51.088;6.572;2023-05-10T02:20:31;15.80;99.90
28075;DHT22;15385;51.088;6.572;2023-05-10T02:23:03;15.80;99.90
28075;DHT22;15385;51.088;6.572;2023-05-10T02:25:34;15.70;99.90
28075;DHT22;15385;51.088;6.572;2023-05-10T02:28:07;15.60;99.90
28075;DHT22;15385;51.088;6.572;2023-05-10T02:30:39;15.50;99.90
28075;DHT22;15385;51.088;6.572;2023-05-10T02:33:10;15.70;99.90
28075;DHT22;15385;51.088;6.572;2023-05-10T02:35:42;15.70;99.90
28075;DHT22;15385;51.088;6.572;2023-05-10T02:38:14;15.70;99.90
28075;DHT22;15385;51.088;6.572;2023-05-10T02:40:46;15.70;99.90
28075;DHT22;15385;51.088;6.572;2023-05-10T02:43:18;15.60;99.90
28075;DHT22;15385;51.088;6.572;2023-05-10T02:45:49;15.60;99.90
28075;DHT22;15385;51.088;6.572;2023-05-10T02:48:19;15.60;99.90
28075;DHT22;15385;51.088;6.572;2023-05-10T02:50:52;15.60;99.90
28075;DHT22;15385;51.088;6.572;2023-05-10T02:53:31;15.60;99.90
28075;DHT22;15385;51.088;6.572;2023-05-10T02:56:05;15.70;99.90
28075;DHT22;15385;51.088;6.572;2023-05-10T02:58:39;15.70;99.90
28075;DHT22;15385;51.088;6.572;2023-05-10T03:01:09;15.80;99.90
28075;DHT22;15385;51.088;6.572;2023-05-10T03:03:40;15.80;99.90
28075;DHT22;15385;51.088;6.572;2023-05-10T03:06:11;15.80;99.90
28075;DHT22;15385;51.088;6.572;2023-05-10T03:08:42;15.80;99.90
28075;DHT22;15385;51.088;6.572;2023-05-10T03:11:36;15.90;99.90
28075;DHT22;15385;51.088;6.572;2023-05-10T03:14:13;15.90;99.90
28075;DHT22;15385;51.088;6.572;2023-05-10T03:16:55;15.80;99.90
28075;DHT22;15385;51.088;6.572;2023-05-10T03:19:32;15.80;99.90
28075;DHT22;15385;51.088;6.572;2023-05-10T03:22:08;15.80;99.90
28075;DHT22;15385;51.088;6.572;2023-05-10T03:24:41;15.80;99.90
28075;DHT22;15385;51.088;6.572;2023-05-10T03:27:14;15.80;99.90
28075;DHT22;15385;51.088;6.572;2023-05-10T03:29:45;15.90;99.90
28075;DHT22;15385;51.088;6.572;2023-05-10T03:32:23;15.80;99.90
28075;DHT22;15385;51.088;6.572;2023-05-10T03:34:53;15.60;99.90
28075;DHT22;15385;51.088;6.572;2023-05-10T03:37:24;15.50;99.90
28075;DHT22;15385;51.088;6.572;2023-05-10T03:39:55;15.50;99.90
28075;DHT22;15385;51.088;6.572;2023-05-10T03:42:25;15.50;99.90
28075;DHT22;15385;51.088;6.572;2023-05-10T03:44:56;15.50;99.90
28075;DHT22;15385;51.088;6.572;2023-05-10T03:47:26;15.60;99.90
28075;DHT22;15385;51.088;6.572;2023-05-10T03:49:57;15.60;99.90
28075;DHT22;15385;51.088;6.572;2023-05-10T03:52:28;15.60;99.90
28075;DHT22;15385;51.088;6.572;2023-05-10T03:54:58;15.50;99.90
28075;DHT22;15385;51.088;6.572;2023-05-10T03:57:29;15.50;99.90
28075;DHT22;15385;51.088;6.572;2023-05-10T04:00:00;15.50;99.90
28075;DHT22;15385;51.088;6.572;2023-05-10T04:02:30;15.50;99.90
28075;DHT22;15385;51.088;6.572;2023-05-10T04:05:01;15.40;99.90
28075;DHT22;15385;51.088;6.572;2023-05-10T04:07:32;15.30;99.90
28075;DHT22;15385;51.088;6.572;2023-05-10T04:10:03;15.30;99.90
28075;DHT22;15385;51.088;6.572;2023-05-10T04:12:34;15.20;99.90
28075;DHT22;15385;51.088;6.572;2023-05-10T04:15:05;15.20;99.90
28075;DHT22;15385;51.088;6.572;2023-05-10T04:17:36;15.20;99.90
28075;DHT22;15385;51.088;6.572;2023-05-10T04:20:08;15.20;99.90
28075;DHT22;15385;51.088;6.572;2023-05-10T04:22:39;15.10;99.90
28075;DHT22;15385;51.088;6.572;2023-05-10T04:25:09;15.10;99.90
28075;DHT22;15385;51.088;6.572;2023-05-10T04:27:40;15.00;99.90
28075;DHT22;15385;51.088;6.572;2023-05-10T04:30:11;15.00;99.90
28075;DHT22;15385;51.088;6.572;2023-05-10T04:32:41;14.90;99.90
28075;DHT22;15385;51.088;6.572;2023-05-10T04:35:12;15.00;99.90
28075;DHT22;15385;51.088;6.572;2023-05-10T04:37:45;15.00;99.90
28075;DHT22;15385;51.088;6.572;2023-05-10T04:40:15;15.00;99.90
28075;DHT22;15385;51.088;6.572;2023-05-10T04:42:46;15.00;99.90
28075;DHT22;15385;51.088;6.572;2023-05-10T04:45:16;15.00;99.90
28075;DHT22;15385;51.088;6.572;2023-05-10T04:47:47;15.10;99.90
28075;DHT22;15385;51.088;6.572;2023-05-10T04:50:18;15.10;99.90
28075;DHT22;15385;51.088;6.572;2023-05-10T04:52:48;15.10;99.90
28075;DHT22;15385;51.088;6.572;2023-05-10T04:55:19;15.20;99.90
28075;DHT22;15385;51.088;6.572;2023-05-10T04:57:49;15.10;99.90
28075;DHT22;15385;51.088;6.572;2023-05-10T05:00:20;15.20;99.90
28075;DHT22;15385;51.088;6.572;2023-05-10T05:02:51;15.20;99.90
28075;DHT22;15385;51.088;6.572;2023-05-10T05:05:25;15.20;99.90
28075;DHT22;15385;51.088;6.572;2023-05-10T05:07:55;15.10;99.90
28075;DHT22;15385;51.088;6.572;2023-05-10T05:10:26;15.10;99.90
28075;DHT22;15385;51.088;6.572;2023-05-10T05:12:57;15.10;99.90
28075;DHT22;15385;51.088;6.572;2023-05-10T05:15:27;15.10;99.90
28075;DHT22;15385;51.088;6.572;2023-05-10T05:17:58;15.00;99.90
28075;DHT22;15385;51.088;6.572;2023-05-10T05:20:32;15.10;99.90
28075;DHT22;15385;51.088;6.572;2023-05-10T05:23:03;15.10;99.90
28075;DHT22;15385;51.088;6.572;2023-05-10T05:25:34;15.10;99.90
28075;DHT22;15385;51.088;6.572;2023-05-10T05:28:04;14.90;99.90
28075;DHT22;15385;51.088;6.572;2023-05-10T05:30:35;14.90;99.90
28075;DHT22;15385;51.088;6.572;2023-05-10T05:33:05;14.90;99.90
28075;DHT22;15385;51.088;6.572;2023-05-10T05:35:36;14.90;99.90
28075;DHT22;15385;51.088;6.572;2023-05-10T05:38:07;15.00;99.90
28075;DHT22;15385;51.088;6.572;2023-05-10T05:40:37;15.10;99.90
28075;DHT22;15385;51.088;6.572;2023-05-10T05:43:08;15.00;99.90
28075;DHT22;15385;51.088;6.572;2023-05-10T05:45:38;15.00;99.90
28075;DHT22;15385;51.088;6.572;2023-05-10T05:48:09;15.10;99.90
28075;DHT22;15385;51.088;6.572;2023-05-10T05:50:39;15.10;99.90
28075;DHT22;15385;51.088;6.572;2023-05-10T05:53:10;15.10;99.90
28075;DHT22;15385;51.088;6.572;2023-05-10T05:55:50;15.00;99.90
28075;DHT22;15385;51.088;6.572;2023-05-10T05:58:22;15.00;99.90
28075;DHT22;15385;51.088;6.572;2023-05-10T06:00:52;14.90;99.90
28075;DHT22;15385;51.088;6.572;2023-05-10T06:03:23;14.80;99.90
28075;DHT22;15385;51.088;6.572;2023-05-10T06:05:53;14.80;99.90
28075;DHT22;15385;51.088;6.572;2023-05-10T06:08:24;14.90;99.90
28075;DHT22;15385;51.088;6.572;2023-05-10T06:10:56;15.00;99.90
28075;DHT22;15385;51.088;6.572;2023-05-10T06:13:26;14.90;99.90
28075;DHT22;15385;51.088;6.572;2023-05-10T06:16:02;14.90;99.90
28075;DHT22;15385;51.088;6.572;2023-05-10T06:18:33;14.90;99.90
28075;DHT22;15385;51.088;6.572;2023-05-10T06:21:04;15.00;99.90
28075;DHT22;15385;51.088;6.572;2023-05-10T06:23:34;15.00;99.90
28075;DHT22;15385;51.088;6.572;2023-05-10T06:26:06;15.00;99.90
28075;DHT22;15385;51.088;6.572;2023-05-10T06:28:36;15.10;99.90
28075;DHT22;15385;51.088;6.572;2023-05-10T06:31:11;15.20;99.90
28075;DHT22;15385;51.088;6.572;2023-05-10T06:33:42;15.30;99.90
28075;DHT22;15385;51.088;6.572;2023-05-10T06:36:13;15.40;99.90
28075;DHT22;15385;51.088;6.572;2023-05-10T06:38:43;15.50;99.90
28075;DHT22;15385;51.088;6.572;2023-05-10T06:41:14;15.60;99.90
28075;DHT22;15385;51.088;6.572;2023-05-10T06:43:44;15.60;99.90
28075;DHT22;15385;51.088;6.572;2023-05-10T06:46:15;15.60;99.90
28075;DHT22;15385;51.088;6.572;2023-05-10T06:48:46;15.50;99.90
28075;DHT22;15385;51.088;6.572;2023-05-10T06:51:16;15.60;99.90
28075;DHT22;15385;51.088;6.572;2023-05-10T06:53:48;15.60;99.90
28075;DHT22;15385;51.088;6.572;2023-05-10T06:56:18;15.70;99.90
28075;DHT22;15385;51.088;6.572;2023-05-10T06:58:51;15.70;99.90
28075;DHT22;15385;51.088;6.572;2023-05-10T07:01:22;15.70;99.90
28075;DHT22;15385;51.088;6.572;2023-05-10T07:03:52;15.60;99.90
28075;DHT22;15385;51.088;6.572;2023-05-10T07:06:23;15.60;99.90
28075;DHT22;15385;51.088;6.572;2023-05-10T07:08:54;15.50;99.90
28075;DHT22;15385;51.088;6.572;2023-05-10T07:11:24;15.40;99.90
28075;DHT22;15385;51.088;6.572;2023-05-10T07:13:55;15.30;99.90
28075;DHT22;15385;51.088;6.572;2023-05-10T07:16:25;15.30;99.90
28075;DHT22;15385;51.088;6.572;2023-05-10T07:18:56;15.30;99.90
28075;DHT22;15385;51.088;6.572;2023-05-10T07:21:26;15.20;99.90
28075;DHT22;15385;51.088;6.572;2023-05-10T07:23:58;15.20;99.90
28075;DHT22;15385;51.088;6.572;2023-05-10T07:26:30;15.40;99.90
28075;DHT22;15385;51.088;6.572;2023-05-10T07:29:01;15.30;99.90
28075;DHT22;15385;51.088;6.572;2023-05-10T07:31:31;15.30;99.90
28075;DHT22;15385;51.088;6.572;2023-05-10T07:34:02;15.40;99.90
28075;DHT22;15385;51.088;6.572;2023-05-10T07:36:33;15.50;99.90
28075;DHT22;15385;51.088;6.572;2023-05-10T07:39:03;15.60;99.90
28075;DHT22;15385;51.088;6.572;2023-05-10T07:41:34;15.80;99.90
28075;DHT22;15385;51.088;6.572;2023-05-10T07:44:06;15.80;99.90
28075;DHT22;15385;51.088;6.572;2023-05-10T07:46:36;16.00;99.90
28075;DHT22;15385;51.088;6.572;2023-05-10T07:49:07;16.00;99.90
28075;DHT22;15385;51.088;6.572;2023-05-10T07:51:38;16.10;99.90
28075;DHT22;15385;51.088;6.572;2023-05-10T07:54:08;16.20;99.90
28075;DHT22;15385;51.088;6.572;2023-05-10T07:56:39;16.20;99.90
28075;DHT22;15385;51.088;6.572;2023-05-10T07:59:16;16.30;99.90
28075;DHT22;15385;51.088;6.572;2023-05-10T08:01:47;16.40;99.90
28075;DHT22;15385;51.088;6.572;2023-05-10T08:04:18;16.60;99.90
28075;DHT22;15385;51.088;6.572;2023-05-10T08:06:48;16.60;99.90
28075;DHT22;15385;51.088;6.572;2023-05-10T08:09:19;16.50;99.90
28075;DHT22;15385;51.088;6.572;2023-05-10T08:11:53;16.50;99.90
28075;DHT22;15385;51.088;6.572;2023-05-10T08:14:24;16.30;99.90
28075;DHT22;15385;51.088;6.572;2023-05-10T08:16:55;16.20;99.90
28075;DHT22;15385;51.088;6.572;2023-05-10T08:19:25;16.30;99.90
28075;DHT22;15385;51.088;6.572;2023-05-10T08:21:56;16.30;99.90
28075;DHT22;15385;51.088;6.572;2023-05-10T08:24:27;16.30;99.90
28075;DHT22;15385;51.088;6.572;2023-05-10T08:26:58;16.40;99.90
28075;DHT22;15385;51.088;6.572;2023-05-10T08:29:28;16.40;99.90
28075;DHT22;15385;51.088;6.572;2023-05-10T08:31:59;16.60;99.90
28075;DHT22;15385;51.088;6.572;2023-05-10T08:34:31;16.60;99.90
28075;DHT22;15385;51.088;6.572;2023-05-10T08:37:13;16.50;99.90
28075;DHT22;15385;51.088;6.572;2023-05-10T08:39:44;16.40;99.90
28075;DHT22;15385;51.088;6.572;2023-05-10T08:42:19;16.40;99.90
28075;DHT22;15385;51.088;6.572;2023-05-10T08:44:53;16.30;99.90
28075;DHT22;15385;51.088;6.572;2023-05-10T08:47:24;16.10;99.90
28075;DHT22;15385;51.088;6.572;2023-05-10T08:49:55;16.10;99.90
28075;DHT22;15385;51.088;6.572;2023-05-10T08:52:28;16.10;99.90
28075;DHT22;15385;51.088;6.572;2023-05-10T08:55:00;16.10;99.90
28075;DHT22;15385;51.088;6.572;2023-05-10T08:57:31;16.00;99.90
28075;DHT22;15385;51.088;6.572;2023-05-10T09:00:02;15.90;99.90
28075;DHT22;15385;51.088;6.572;2023-05-10T09:02:33;16.00;99.90
28075;DHT22;15385;51.088;6.572;2023-05-10T09:05:05;15.70;99.90
28075;DHT22;15385;51.088;6.572;2023-05-10T09:07:36;15.80;99.90
28075;DHT22;15385;51.088;6.572;2023-05-10T09:10:08;15.80;99.90
28075;DHT22;15385;51.088;6.572;2023-05-10T09:12:39;15.90;99.90
28075;DHT22;15385;51.088;6.572;2023-05-10T09:15:10;16.10;99.90
28075;DHT22;15385;51.088;6.572;2023-05-10T09:17:42;16.10;99.90
28075;DHT22;15385;51.088;6.572;2023-05-10T09:20:14;16.20;99.90
28075;DHT22;15385;51.088;6.572;2023-05-10T09:22:44;16.20;99.90
28075;DHT22;15385;51.088;6.572;2023-05-10T09:25:16;16.30;99.90
28075;DHT22;15385;51.088;6.572;2023-05-10T09:27:47;16.20;99.90
28075;DHT22;15385;51.088;6.572;2023-05-10T09:30:38;16.20;99.90
28075;DHT22;15385;51.088;6.572;2023-05-10T09:33:09;16.30;99.90
28075;DHT22;15385;51.088;6.572;2023-05-10T09:35:40;16.40;99.90
28075;DHT22;15385;51.088;6.572;2023-05-10T09:38:12;16.50;99.90
28075;DHT22;15385;51.088;6.572;2023-05-10T09:40:51;16.40;99.90
28075;DHT22;15385;51.088;6.572;2023-05-10T09:43:24;16.40;99.90
28075;DHT22;15385;51.088;6.572;2023-05-10T09:45:55;16.40;99.90
28075;DHT22;15385;51.088;6.572;2023-05-10T09:48:26;16.60;99.90
28075;DHT22;15385;51.088;6.572;2023-05-10T09:50:57;16.70;99.90
28075;DHT22;15385;51.088;6.572;2023-05-10T09:53:28;16.80;99.90
28075;DHT22;15385;51.088;6.572;2023-05-10T09:55:58;16.80;99.90
28075;DHT22;15385;51.088;6.572;2023-05-10T09:58:29;17.00;99.90
28075;DHT22;15385;51.088;6.572;2023-05-10T10:00:59;17.20;99.90
28075;DHT22;15385;51.088;6.572;2023-05-10T10:03:30;17.30;99.90
28075;DHT22;15385;51.088;6.572;2023-05-10T10:06:01;17.10;99.90
28075;DHT22;15385;51.088;6.572;2023-05-10T10:08:32;17.20;99.90
28075;DHT22;15385;51.088;6.572;2023-05-10T10:11:02;17.30;99.90
28075;DHT22;15385;51.088;6.572;2023-05-10T10:13:33;17.40;99.90
28075;DHT22;15385;51.088;6.572;2023-05-10T10:16:04;17.40;99.90
28075;DHT22;15385;51.088;6.572;2023-05-10T10:18:36;17.40;99.90
28075;DHT22;15385;51.088;6.572;2023-05-10T10:21:09;17.40;99.90
28075;DHT22;15385;51.088;6.572;2023-05-10T10:23:39;17.30;99.90
28075;DHT22;15385;51.088;6.572;2023-05-10T10:26:10;17.30;99.90
28075;DHT22;15385;51.088;6.572;2023-05-10T10:31:41;17.40;99.90
28075;DHT22;15385;51.088;6.572;2023-05-10T10:34:27;17.30;99.90
28075;DHT22;15385;51.088;6.572;2023-05-10T10:37:04;17.20;99.90
28075;DHT22;15385;51.088;6.572;2023-05-10T10:39:35;17.20;99.90
28075;DHT22;15385;51.088;6.572;2023-05-10T10:42:07;17.20;99.90
28075;DHT22;15385;51.088;6.572;2023-05-10T10:44:37;17.30;99.90
28075;DHT22;15385;51.088;6.572;2023-05-10T10:50:03;17.30;99.90
28075;DHT22;15385;51.088;6.572;2023-05-10T10:52:41;17.20;99.90
28075;DHT22;15385;51.088;6.572;2023-05-10T10:57:56;17.30;99.90
28075;DHT22;15385;51.088;6.572;2023-05-10T11:00:38;17.20;99.90
28075;DHT22;15385;51.088;6.572;2023-05-10T11:03:12;17.20;99.90
28075;DHT22;15385;51.088;6.572;2023-05-10T11:05:49;17.10;99.90
28075;DHT22;15385;51.088;6.572;2023-05-10T11:08:32;17.00;99.90
28075;DHT22;15385;51.088;6.572;2023-05-10T11:11:04;17.00;99.90
28075;DHT22;15385;51.088;6.572;2023-05-10T11:13:46;17.10;99.90
28075;DHT22;15385;51.088;6.572;2023-05-10T11:16:21;17.10;99.90
28075;DHT22;15385;51.088;6.572;2023-05-10T11:18:59;17.30;99.90
28075;DHT22;15385;51.088;6.572;2023-05-10T11:21:33;17.20;99.90
28075;DHT22;15385;51.088;6.572;2023-05-10T11:24:13;17.30;99.90
28075;DHT22;15385;51.088;6.572;2023-05-10T11:26:44;17.30;99.90
28075;DHT22;15385;51.088;6.572;2023-05-10T11:29:15;17.30;99.90
28075;DHT22;15385;51.088;6.572;2023-05-10T11:31:47;17.30;99.90
28075;DHT22;15385;51.088;6.572;2023-05-10T11:34:29;17.30;99.90
28075;DHT22;15385;51.088;6.572;2023-05-10T11:37:00;17.40;99.90
28075;DHT22;15385;51.088;6.572;2023-05-10T11:39:31;17.40;99.90
28075;DHT22;15385;51.088;6.572;2023-05-10T11:42:03;17.50;99.90
28075;DHT22;15385;51.088;6.572;2023-05-10T11:44:34;17.60;99.90
28075;DHT22;15385;51.088;6.572;2023-05-10T11:47:05;17.70;99.90
28075;DHT22;15385;51.088;6.572;2023-05-10T11:49:36;17.80;99.90
28075;DHT22;15385;51.088;6.572;2023-05-10T11:52:07;17.90;99.90
28075;DHT22;15385;51.088;6.572;2023-05-10T11:54:51;17.80;99.90
28075;DHT22;15385;51.088;6.572;2023-05-10T11:57:26;17.90;99.90
28075;DHT22;15385;51.088;6.572;2023-05-10T11:59:58;17.90;99.90
28075;DHT22;15385;51.088;6.572;2023-05-10T12:02:29;17.90;99.90
28075;DHT22;15385;51.088;6.572;2023-05-10T12:05:00;18.00;99.90
28075;DHT22;15385;51.088;6.572;2023-05-10T12:07:32;18.10;99.90
28075;DHT22;15385;51.088;6.572;2023-05-10T12:10:06;18.40;99.90
28075;DHT22;15385;51.088;6.572;2023-05-10T12:12:42;18.60;99.90
28075;DHT22;15385;51.088;6.572;2023-05-10T12:15:21;18.60;99.90
28075;DHT22;15385;51.088;6.572;2023-05-10T12:17:52;18.70;99.90
28075;DHT22;15385;51.088;6.572;2023-05-10T12:20:24;18.80;99.90
28075;DHT22;15385;51.088;6.572;2023-05-10T12:22:56;18.70;99.90
28075;DHT22;15385;51.088;6.572;2023-05-10T12:25:32;18.80;99.90
28075;DHT22;15385;51.088;6.572;2023-05-10T12:28:06;18.80;99.90
28075;DHT22;15385;51.088;6.572;2023-05-10T12:30:37;18.90;99.90
28075;DHT22;15385;51.088;6.572;2023-05-10T12:33:11;19.00;99.90
28075;DHT22;15385;51.088;6.572;2023-05-10T12:35:52;19.20;99.90
28075;DHT22;15385;51.088;6.572;2023-05-10T12:38:33;19.20;99.90
28075;DHT22;15385;51.088;6.572;2023-05-10T12:41:08;19.20;99.90
28075;DHT22;15385;51.088;6.572;2023-05-10T12:43:39;19.20;99.90
28075;DHT22;15385;51.088;6.572;2023-05-10T12:46:16;19.10;99.90
28075;DHT22;15385;51.088;6.572;2023-05-10T12:48:46;18.90;99.90
28075;DHT22;15385;51.088;6.572;2023-05-10T12:51:19;18.80;99.90
28075;DHT22;15385;51.088;6.572;2023-05-10T12:53:52;18.60;99.90
28075;DHT22;15385;51.088;6.572;2023-05-10T12:56:23;18.60;99.90
28075;DHT22;15385;51.088;6.572;2023-05-10T12:58:53;18.50;99.90
28075;DHT22;15385;51.088;6.572;2023-05-10T13:01:24;18.40;99.90
28075;DHT22;15385;51.088;6.572;2023-05-10T13:03:54;18.30;99.90
28075;DHT22;15385;51.088;6.572;2023-05-10T13:06:25;18.40;99.90
28075;DHT22;15385;51.088;6.572;2023-05-10T13:08:55;18.40;99.90
28075;DHT22;15385;51.088;6.572;2023-05-10T13:11:27;18.40;99.90
28075;DHT22;15385;51.088;6.572;2023-05-10T13:13:58;18.40;99.90
28075;DHT22;15385;51.088;6.572;2023-05-10T13:16:29;18.10;99.90
28075;DHT22;15385;51.088;6.572;2023-05-10T13:18:59;18.10;99.90
28075;DHT22;15385;51.088;6.572;2023-05-10T13:21:30;18.00;99.90
28075;DHT22;15385;51.088;6.572;2023-05-10T13:24:01;18.20;99.90
28075;DHT22;15385;51.088;6.572;2023-05-10T13:26:31;18.40;99.90
28075;DHT22;15385;51.088;6.572;2023-05-10T13:29:03;18.40;99.90
28075;DHT22;15385;51.088;6.572;2023-05-10T13:31:34;18.50;99.90
28075;DHT22;15385;51.088;6.572;2023-05-10T13:34:05;18.60;99.90
28075;DHT22;15385;51.088;6.572;2023-05-10T13:36:36;18.60;99.90
28075;DHT22;15385;51.088;6.572;2023-05-10T13:39:06;18.60;99.90
28075;DHT22;15385;51.088;6.572;2023-05-10T13:41:37;18.40;99.90
28075;DHT22;15385;51.088;6.572;2023-05-10T13:44:08;18.40;99.90
28075;DHT22;15385;51.088;6.572;2023-05-10T13:46:39;18.50;99.90
28075;DHT22;15385;51.088;6.572;2023-05-10T13:49:09;18.60;99.90
28075;DHT22;15385;51.088;6.572;2023-05-10T13:51:40;18.70;99.90
28075;DHT22;15385;51.088;6.572;2023-05-10T13:54:10;18.80;99.90
28075;DHT22;15385;51.088;6.572;2023-05-10T13:56:44;18.80;99.90
28075;DHT22;15385;51.088;6.572;2023-05-10T13:59:15;18.70;99.90
28075;DHT22;15385;51.088;6.572;2023-05-10T14:01:46;18.70;99.90
28075;DHT22;15385;51.088;6.572;2023-05-10T14:04:17;18.60;99.90
28075;DHT22;15385;51.088;6.572;2023-05-10T14:06:47;18.70;99.90
28075;DHT22;15385;51.088;6.572;2023-05-10T14:09:18;18.80;99.90
28075;DHT22;15385;51.088;6.572;2023-05-10T14:11:49;19.00;99.90
28075;DHT22;15385;51.088;6.572;2023-05-10T14:14:19;19.10;99.90
28075;DHT22;15385;51.088;6.572;2023-05-10T14:16:50;19.10;99.90
28075;DHT22;15385;51.088;6.572;2023-05-10T14:19:20;19.00;99.90
28075;DHT22;15385;51.088;6.572;2023-05-10T14:21:51;19.00;99.90
28075;DHT22;15385;51.088;6.572;2023-05-10T14:24:22;19.00;99.90
28075;DHT22;15385;51.088;6.572;2023-05-10T14:26:52;19.10;99.90
28075;DHT22;15385;51.088;6.572;2023-05-10T14:29:24;19.10;99.90
28075;DHT22;15385;51.088;6.572;2023-05-10T14:31:55;19.10;99.90
28075;DHT22;15385;51.088;6.572;2023-05-10T14:34:25;19.10;99.90
28075;DHT22;15385;51.088;6.572;2023-05-10T14:36:56;19.00;99.90
28075;DHT22;15385;51.088;6.572;2023-05-10T14:39:27;19.10;99.90
28075;DHT22;15385;51.088;6.572;2023-05-10T14:41:59;19.10;99.90
28075;DHT22;15385;51.088;6.572;2023-05-10T14:44:30;19.10;99.90
28075;DHT22;15385;51.088;6.572;2023-05-10T14:47:01;19.00;99.90
28075;DHT22;15385;51.088;6.572;2023-05-10T14:49:32;19.10;99.90
28075;DHT22;15385;51.088;6.572;2023-05-10T14:52:03;19.20;99.90
28075;DHT22;15385;51.088;6.572;2023-05-10T14:54:33;19.20;99.90
28075;DHT22;15385;51.088;6.572;2023-05-10T14:57:04;19.20;99.90
28075;DHT22;15385;51.088;6.572;2023-05-10T14:59:35;19.30;99.90
28075;DHT22;15385;51.088;6.572;2023-05-10T15:02:06;19.10;99.90
28075;DHT22;15385;51.088;6.572;2023-05-10T15:04:38;19.10;99.90
28075;DHT22;15385;51.088;6.572;2023-05-10T15:07:09;19.30;99.90
28075;DHT22;15385;51.088;6.572;2023-05-10T15:09:39;19.30;99.90
28075;DHT22;15385;51.088;6.572;2023-05-10T15:12:10;19.30;99.90
28075;DHT22;15385;51.088;6.572;2023-05-10T15:14:41;19.30;99.90
28075;DHT22;15385;51.088;6.572;2023-05-10T15:17:11;19.20;99.90
28075;DHT22;15385;51.088;6.572;2023-05-10T15:19:42;19.30;99.90
28075;DHT22;15385;51.088;6.572;2023-05-10T15:22:13;19.20;99.90
28075;DHT22;15385;51.088;6.572;2023-05-10T15:24:43;19.10;99.90
28075;DHT22;15385;51.088;6.572;2023-05-10T15:27:14;19.00;99.90
28075;DHT22;15385;51.088;6.572;2023-05-10T15:29:45;19.00;99.90
28075;DHT22;15385;51.088;6.572;2023-05-10T15:32:15;19.00;99.90
28075;DHT22;15385;51.088;6.572;2023-05-10T15:34:46;19.00;99.90
28075;DHT22;15385;51.088;6.572;2023-05-10T15:37:17;19.00;99.90
28075;DHT22;15385;51.088;6.572;2023-05-10T15:39:47;19.00;99.90
28075;DHT22;15385;51.088;6.572;2023-05-10T15:42:18;19.00;99.90
28075;DHT22;15385;51.088;6.572;2023-05-10T15:44:48;19.00;99.90
28075;DHT22;15385;51.088;6.572;2023-05-10T15:47:20;19.00;99.90
28075;DHT22;15385;51.088;6.572;2023-05-10T15:49:51;19.00;99.90
28075;DHT22;15385;51.088;6.572;2023-05-10T15:52:21;19.00;99.90
28075;DHT22;15385;51.088;6.572;2023-05-10T15:54:53;18.80;99.90
28075;DHT22;15385;51.088;6.572;2023-05-10T15:57:23;18.70;99.90
28075;DHT22;15385;51.088;6.572;2023-05-10T15:59:54;18.70;99.90
28075;DHT22;15385;51.088;6.572;2023-05-10T16:02:25;18.80;99.90
28075;DHT22;15385;51.088;6.572;2023-05-10T16:04:56;18.70;99.90
28075;DHT22;15385;51.088;6.572;2023-05-10T16:07:26;18.60;99.90
28075;DHT22;15385;51.088;6.572;2023-05-10T16:09:57;18.60;99.90
28075;DHT22;15385;51.088;6.572;2023-05-10T16:12:28;18.50;99.90
28075;DHT22;15385;51.088;6.572;2023-05-10T16:14:59;18.40;99.90
28075;DHT22;15385;51.088;6.572;2023-05-10T16:17:30;18.30;99.90